createdAt,value
2022-12-08T00:02:06.202Z,3.10
2022-12-08T00:04:54.626Z,3.10
2022-12-08T00:07:40.614Z,3.10
2022-12-08T00:10:39.861Z,3.10
2022-12-08T00:13:00.662Z,3.10
2022-12-08T00:15:28.921Z,3.10
2022-12-08T00:17:58.543Z,3.10
2022-12-08T00:20:26.822Z,3.20
2022-12-08T00:22:54.984Z,3.20
2022-12-08T00:25:23.124Z,3.20
2022-12-08T00:27:51.289Z,3.20
2022-12-08T00:30:19.519Z,3.20
2022-12-08T00:32:47.849Z,3.10
2022-12-08T00:35:17.467Z,3.10
2022-12-08T00:37:45.614Z,3.10
2022-12-08T00:40:13.918Z,3.10
2022-12-08T00:42:42.020Z,3.10
2022-12-08T00:45:10.943Z,3.10
2022-12-08T00:47:39.284Z,3.10
2022-12-08T00:50:08.834Z,3.10
2022-12-08T00:52:38.840Z,3.10
2022-12-08T00:55:07.392Z,3.10
2022-12-08T00:57:35.574Z,3.20
2022-12-08T01:00:04.522Z,3.20
2022-12-08T01:02:34.314Z,3.20
2022-12-08T01:05:02.489Z,3.20
2022-12-08T01:07:30.697Z,3.20
2022-12-08T01:10:00.167Z,3.20
2022-12-08T01:12:30.373Z,3.20
2022-12-08T01:15:02.213Z,3.10
2022-12-08T01:17:30.768Z,3.00
2022-12-08T01:19:59.479Z,2.90
2022-12-08T01:22:30.201Z,2.90
2022-12-08T01:25:01.936Z,2.80
2022-12-08T01:27:30.110Z,2.70
2022-12-08T01:29:58.190Z,2.70
2022-12-08T01:32:28.552Z,2.60
2022-12-08T01:34:56.682Z,2.60
2022-12-08T01:37:24.787Z,2.50
2022-12-08T01:39:53.114Z,2.50
2022-12-08T01:42:24.429Z,2.50
2022-12-08T01:44:59.160Z,2.40
2022-12-08T01:47:31.743Z,2.40
2022-12-08T01:50:00.530Z,2.30
2022-12-08T01:52:34.523Z,2.20
2022-12-08T01:55:06.151Z,2.10
2022-12-08T01:57:40.920Z,2.10
2022-12-08T02:00:12.325Z,2.10
2022-12-08T02:02:51.119Z,2.00
2022-12-08T02:05:21.775Z,1.90
2022-12-08T02:07:50.453Z,1.90
2022-12-08T02:10:22.149Z,1.80
2022-12-08T02:12:54.107Z,1.70
2022-12-08T02:15:31.227Z,1.70
2022-12-08T02:18:07.955Z,1.60
2022-12-08T02:20:47.002Z,1.50
2022-12-08T02:23:25.147Z,1.50
2022-12-08T02:26:18.767Z,1.40
2022-12-08T02:29:12.668Z,1.40
2022-12-08T02:31:55.059Z,1.40
2022-12-08T02:34:30.680Z,1.40
2022-12-08T02:37:07.988Z,1.30
2022-12-08T02:39:43.119Z,1.30
2022-12-08T02:42:19.580Z,1.30
2022-12-08T02:44:53.289Z,1.20
2022-12-08T02:47:24.792Z,1.20
2022-12-08T02:49:55.787Z,1.20
2022-12-08T02:52:46.718Z,1.20
2022-12-08T02:55:27.571Z,1.10
2022-12-08T02:58:15.933Z,1.10
2022-12-08T03:01:00.012Z,1.00
2022-12-08T03:03:36.646Z,1.00
2022-12-08T03:06:14.167Z,0.90
2022-12-08T03:08:49.833Z,0.90
2022-12-08T03:11:22.800Z,0.90
2022-12-08T03:13:54.135Z,1.00
2022-12-08T03:16:25.909Z,1.10
2022-12-08T03:18:57.838Z,1.20
2022-12-08T03:21:28.303Z,1.40
2022-12-08T03:23:58.802Z,1.60
2022-12-08T03:26:31.923Z,1.70
2022-12-08T03:29:00.575Z,1.80
2022-12-08T03:31:34.204Z,1.80
2022-12-08T03:34:05.653Z,1.90
2022-12-08T03:36:35.058Z,1.90
2022-12-08T03:39:03.435Z,2.00
2022-12-08T03:41:31.591Z,2.00
2022-12-08T03:44:00.454Z,2.10
2022-12-08T03:48:58.673Z,2.10
2022-12-08T03:51:27.258Z,2.20
2022-12-08T03:53:56.821Z,2.20
2022-12-08T03:56:26.877Z,2.20
2022-12-08T03:58:55.866Z,2.20
2022-12-08T04:01:24.372Z,2.20
2022-12-08T04:03:52.899Z,2.20
2022-12-08T04:06:22.726Z,2.20
2022-12-08T04:08:51.737Z,2.20
2022-12-08T04:11:21.583Z,2.20
2022-12-08T04:13:49.846Z,2.20
2022-12-08T04:16:19.782Z,2.20
2022-12-08T04:18:48.810Z,2.20
2022-12-08T04:21:17.083Z,2.20
2022-12-08T04:23:45.534Z,2.10
2022-12-08T04:26:14.366Z,2.00
2022-12-08T04:28:44.338Z,1.90
2022-12-08T04:31:12.601Z,1.90
2022-12-08T04:33:40.801Z,1.90
2022-12-08T04:36:10.234Z,2.00
2022-12-08T04:38:38.412Z,2.00
2022-12-08T04:41:11.500Z,2.00
2022-12-08T04:43:39.684Z,2.00
2022-12-08T04:46:10.293Z,2.00
2022-12-08T04:48:39.939Z,1.90
2022-12-08T04:51:08.699Z,1.90
2022-12-08T04:53:38.383Z,1.90
2022-12-08T04:56:13.172Z,1.90
2022-12-08T04:58:41.648Z,1.90
2022-12-08T05:01:11.384Z,1.90
2022-12-08T05:03:39.635Z,2.00
2022-12-08T05:06:08.202Z,2.00
2022-12-08T05:08:36.402Z,2.00
2022-12-08T05:11:08.647Z,2.00
2022-12-08T05:13:37.043Z,2.00
2022-12-08T05:16:06.290Z,2.00
2022-12-08T05:18:36.371Z,1.90
2022-12-08T05:21:05.650Z,1.90
2022-12-08T05:23:34.377Z,1.90
2022-12-08T05:26:02.765Z,1.90
2022-12-08T05:28:46.357Z,1.90
2022-12-08T05:31:16.483Z,1.90
2022-12-08T05:33:46.582Z,1.90
2022-12-08T05:36:16.063Z,1.90
2022-12-08T05:38:45.529Z,2.00
2022-12-08T05:41:16.750Z,2.00
2022-12-08T05:43:45.435Z,2.00
2022-12-08T05:46:16.453Z,1.90
2022-12-08T05:48:46.102Z,2.00
2022-12-08T05:51:19.790Z,2.00
2022-12-08T05:53:50.079Z,2.00
2022-12-08T05:56:21.480Z,2.00
2022-12-08T05:58:50.057Z,2.10
2022-12-08T06:01:23.337Z,2.10
2022-12-08T06:04:03.324Z,2.10
2022-12-08T06:06:32.627Z,2.20
2022-12-08T06:09:03.750Z,2.20
2022-12-08T06:11:35.221Z,2.20
2022-12-08T06:14:29.857Z,2.20
2022-12-08T06:17:08.180Z,2.20
2022-12-08T06:19:41.238Z,2.20
2022-12-08T06:22:11.439Z,2.20
2022-12-08T06:24:40.685Z,2.20
2022-12-08T06:27:08.863Z,2.40
2022-12-08T06:29:36.935Z,2.50
2022-12-08T06:32:05.202Z,2.50
2022-12-08T06:34:33.395Z,2.60
2022-12-08T06:37:05.398Z,2.70
2022-12-08T06:39:33.571Z,2.60
2022-12-08T06:42:19.868Z,2.60
2022-12-08T06:44:48.599Z,2.70
2022-12-08T06:47:16.807Z,2.60
2022-12-08T06:49:45.027Z,2.60
2022-12-08T06:52:15.363Z,2.60
2022-12-08T06:54:43.653Z,2.60
2022-12-08T06:57:11.916Z,2.60
2022-12-08T06:59:42.670Z,2.60
2022-12-08T07:02:11.415Z,2.60
2022-12-08T07:04:39.633Z,2.60
2022-12-08T07:07:10.242Z,2.60
2022-12-08T07:09:39.824Z,2.60
2022-12-08T07:12:08.419Z,2.60
2022-12-08T07:14:37.868Z,2.60
2022-12-08T07:17:06.357Z,2.60
2022-12-08T07:19:34.803Z,2.60
2022-12-08T07:22:03.103Z,2.60
2022-12-08T07:24:31.309Z,2.60
2022-12-08T07:27:02.935Z,2.60
2022-12-08T07:29:31.283Z,2.70
2022-12-08T07:31:59.589Z,2.70
2022-12-08T07:34:27.786Z,2.80
2022-12-08T07:36:56.068Z,2.80
2022-12-08T07:39:24.219Z,2.80
2022-12-08T07:41:52.443Z,2.80
2022-12-08T07:44:23.937Z,2.90
2022-12-08T07:46:52.238Z,2.90
2022-12-08T07:49:22.881Z,2.90
2022-12-08T07:51:51.024Z,3.00
2022-12-08T07:54:19.334Z,3.00
2022-12-08T07:56:47.449Z,3.00
2022-12-08T07:59:15.658Z,3.00
2022-12-08T08:01:45.678Z,3.00
2022-12-08T08:04:14.177Z,3.10
2022-12-08T08:06:42.430Z,3.10
2022-12-08T08:09:11.037Z,3.10
2022-12-08T08:11:39.398Z,3.20
2022-12-08T08:14:07.459Z,3.20
2022-12-08T08:16:38.613Z,3.10
2022-12-08T08:19:08.690Z,3.20
2022-12-08T08:21:45.512Z,3.20
2022-12-08T08:24:14.158Z,3.20
2022-12-08T08:26:44.671Z,3.20
2022-12-08T08:29:12.771Z,3.20
2022-12-08T08:31:40.973Z,3.30
2022-12-08T08:34:10.584Z,3.30
2022-12-08T08:36:41.325Z,3.30
2022-12-08T08:39:09.560Z,3.30
2022-12-08T08:41:37.729Z,3.30
2022-12-08T08:44:06.057Z,3.40
2022-12-08T08:46:34.856Z,3.40
2022-12-08T08:49:05.463Z,3.50
2022-12-08T08:51:35.366Z,3.40
2022-12-08T08:54:03.520Z,3.40
2022-12-08T08:56:33.778Z,3.30
2022-12-08T08:59:03.062Z,3.40
2022-12-08T09:01:31.660Z,3.50
2022-12-08T09:04:01.449Z,3.50
2022-12-08T09:06:32.446Z,3.50
2022-12-08T09:09:02.233Z,3.50
2022-12-08T09:11:31.403Z,3.50
2022-12-08T09:13:59.565Z,3.60
2022-12-08T09:16:30.111Z,3.60
2022-12-08T09:18:58.374Z,3.80
2022-12-08T09:21:27.607Z,3.70
2022-12-08T09:23:57.801Z,3.80
2022-12-08T09:26:29.156Z,3.80
2022-12-08T09:28:58.135Z,3.80
2022-12-08T09:31:26.538Z,4.00
2022-12-08T09:33:54.889Z,4.10
2022-12-08T09:36:23.252Z,4.20
2022-12-08T09:38:53.542Z,4.20
2022-12-08T09:41:35.977Z,4.20
2022-12-08T09:44:30.732Z,4.20
2022-12-08T09:47:01.787Z,4.10
2022-12-08T09:49:43.385Z,4.00
2022-12-08T09:52:21.870Z,4.00
2022-12-08T09:54:50.156Z,4.00
2022-12-08T09:57:21.879Z,4.00
2022-12-08T09:59:56.433Z,4.00
2022-12-08T10:02:26.559Z,4.10
2022-12-08T10:04:56.827Z,4.10
2022-12-08T10:07:38.227Z,4.20
2022-12-08T10:10:17.713Z,4.20
2022-12-08T10:12:49.656Z,4.30
2022-12-08T10:15:38.889Z,4.30
2022-12-08T10:18:17.802Z,4.20
2022-12-08T10:20:48.445Z,4.20
2022-12-08T10:23:28.816Z,4.20
2022-12-08T10:26:02.625Z,4.30
2022-12-08T10:28:30.818Z,4.50
2022-12-08T10:31:01.922Z,4.50
2022-12-08T10:33:34.443Z,4.60
2022-12-08T10:36:03.183Z,4.70
2022-12-08T10:38:33.156Z,4.60
2022-12-08T10:41:07.818Z,4.50
2022-12-08T10:43:39.407Z,4.50
2022-12-08T10:46:15.494Z,4.70
2022-12-08T10:48:55.612Z,4.70
2022-12-08T10:51:29.833Z,4.70
2022-12-08T10:53:58.543Z,4.80
2022-12-08T10:56:29.119Z,4.80
2022-12-08T10:59:13.651Z,4.80
2022-12-08T11:01:48.678Z,4.80
2022-12-08T11:04:19.602Z,4.80
2022-12-08T11:06:51.758Z,4.90
2022-12-08T11:09:39.588Z,4.90
2022-12-08T11:12:10.230Z,5.00
2022-12-08T11:14:49.642Z,5.10
2022-12-08T11:17:26.220Z,5.20
2022-12-08T11:20:00.704Z,5.30
2022-12-08T11:22:33.061Z,5.40
2022-12-08T11:25:10.346Z,5.60
2022-12-08T11:27:40.995Z,5.60
2022-12-08T11:30:17.072Z,5.50
2022-12-08T11:32:51.965Z,5.40
2022-12-08T11:35:25.372Z,5.40
2022-12-08T11:38:07.860Z,5.40
2022-12-08T11:40:45.453Z,5.30
2022-12-08T11:43:20.621Z,5.30
2022-12-08T11:45:53.238Z,5.40
2022-12-08T11:48:31.186Z,5.30
2022-12-08T11:51:05.115Z,5.20
2022-12-08T11:53:40.449Z,5.00
2022-12-08T11:56:20.128Z,5.10
2022-12-08T11:58:51.725Z,5.10
2022-12-08T12:01:22.576Z,5.10
2022-12-08T12:03:59.752Z,5.00
2022-12-08T12:06:57.139Z,5.10
2022-12-08T12:09:36.014Z,5.10
2022-12-08T12:12:16.957Z,5.30
2022-12-08T12:15:22.706Z,5.20
2022-12-08T12:17:54.094Z,5.10
2022-12-08T12:20:47.062Z,5.00
2022-12-08T12:27:31.973Z,5.00
2022-12-08T12:30:03.705Z,5.10
2022-12-08T12:32:44.466Z,4.90
2022-12-08T12:35:27.685Z,4.80
2022-12-08T12:38:04.347Z,4.60
2022-12-08T12:40:40.153Z,4.60
2022-12-08T12:43:28.723Z,4.60
2022-12-08T12:46:29.468Z,4.60
2022-12-08T12:49:36.194Z,4.50
2022-12-08T12:52:05.830Z,4.60
2022-12-08T12:54:35.402Z,4.60
2022-12-08T12:57:22.068Z,4.60
2022-12-08T13:00:09.326Z,4.60
2022-12-08T13:02:39.978Z,4.60
2022-12-08T13:05:15.959Z,4.60
2022-12-08T13:07:50.910Z,4.60
2022-12-08T13:10:24.362Z,4.70
2022-12-08T13:13:18.915Z,4.70
2022-12-08T13:15:52.412Z,4.70
2022-12-08T13:18:23.037Z,4.60
2022-12-08T13:20:54.147Z,4.60
2022-12-08T13:23:42.534Z,4.50
2022-12-08T13:26:18.595Z,4.50
2022-12-08T13:29:14.030Z,4.50
2022-12-08T13:31:50.056Z,4.50
2022-12-08T13:34:22.961Z,4.50
2022-12-08T13:37:02.457Z,4.50
2022-12-08T13:39:37.911Z,4.50
2022-12-08T13:42:17.659Z,4.50
2022-12-08T13:45:19.739Z,4.60
2022-12-08T13:48:14.066Z,4.70
2022-12-08T13:50:55.732Z,4.70
2022-12-08T13:54:35.384Z,4.60
2022-12-08T13:59:28.143Z,4.70
2022-12-08T14:01:59.403Z,4.60
2022-12-08T14:04:47.980Z,4.50
2022-12-08T14:07:17.494Z,4.50
2022-12-08T14:09:47.476Z,4.30
2022-12-08T14:12:20.671Z,4.30
2022-12-08T14:15:08.334Z,4.20
2022-12-08T14:17:36.670Z,4.20
2022-12-08T14:20:15.441Z,4.20
2022-12-08T14:22:46.394Z,4.30
2022-12-08T14:25:16.871Z,4.20
2022-12-08T14:27:46.337Z,4.10
2022-12-08T14:30:21.293Z,4.20
2022-12-08T14:32:51.779Z,4.10
2022-12-08T14:35:24.601Z,4.00
2022-12-08T14:37:56.604Z,4.00
2022-12-08T14:40:29.839Z,4.00
2022-12-08T14:43:14.817Z,4.10
2022-12-08T14:45:53.447Z,4.10
2022-12-08T14:48:26.829Z,4.10
2022-12-08T14:51:09.354Z,4.10
2022-12-08T14:53:42.443Z,4.20
2022-12-08T14:56:19.940Z,4.10
2022-12-08T14:58:49.821Z,4.10
2022-12-08T15:01:24.733Z,4.10
2022-12-08T15:03:54.879Z,4.10
2022-12-08T15:06:23.656Z,4.10
2022-12-08T15:08:58.697Z,4.00
2022-12-08T15:11:37.129Z,4.00
2022-12-08T15:14:05.607Z,4.00
2022-12-08T15:16:42.757Z,4.00
2022-12-08T15:19:19.682Z,4.00
2022-12-08T15:21:48.384Z,4.00
2022-12-08T15:24:19.296Z,4.00
2022-12-08T15:26:49.566Z,4.00
2022-12-08T15:29:22.807Z,4.10
2022-12-08T15:31:53.779Z,4.10
2022-12-08T15:34:22.691Z,4.10
2022-12-08T15:36:52.359Z,4.20
2022-12-08T15:39:33.170Z,4.20
2022-12-08T15:42:02.542Z,4.10
2022-12-08T15:44:32.750Z,4.10
2022-12-08T15:47:02.759Z,4.10
2022-12-08T15:49:31.346Z,4.00
2022-12-08T15:52:10.749Z,3.90
2022-12-08T15:54:39.996Z,3.80
2022-12-08T15:57:43.794Z,3.80
2022-12-08T16:00:51.259Z,3.80
2022-12-08T16:04:02.712Z,3.80
2022-12-08T16:09:14.080Z,3.80
2022-12-08T16:12:09.292Z,3.80
2022-12-08T16:17:29.059Z,3.80
2022-12-08T16:19:59.427Z,3.80
2022-12-08T16:22:52.733Z,3.70
2022-12-08T16:25:19.376Z,3.70
2022-12-08T16:28:03.000Z,3.70
2022-12-08T16:30:37.171Z,3.70
2022-12-08T16:33:05.691Z,3.70
2022-12-08T16:35:35.496Z,3.80
2022-12-08T16:38:03.841Z,3.80
2022-12-08T16:40:32.237Z,3.70
2022-12-08T16:42:59.487Z,3.70
2022-12-08T16:45:29.551Z,3.70
2022-12-08T16:47:59.876Z,3.80
2022-12-08T16:50:30.454Z,3.80
2022-12-08T16:53:01.969Z,3.80
2022-12-08T16:55:30.300Z,3.80
2022-12-08T16:57:59.469Z,3.80
2022-12-08T17:00:29.612Z,3.80
2022-12-08T17:03:00.128Z,3.80
2022-12-08T17:05:28.639Z,3.80
2022-12-08T17:08:00.117Z,3.80
2022-12-08T17:10:30.589Z,3.70
2022-12-08T17:12:59.066Z,3.80
2022-12-08T17:15:27.385Z,3.70
2022-12-08T17:17:55.739Z,3.70
2022-12-08T17:20:28.402Z,3.70
2022-12-08T17:22:58.237Z,3.60
2022-12-08T17:25:28.342Z,3.60
2022-12-08T17:27:57.141Z,3.50
2022-12-08T17:30:26.032Z,3.40
2022-12-08T17:32:55.496Z,3.40
2022-12-08T17:35:23.734Z,3.40
2022-12-08T17:37:52.091Z,3.40
2022-12-08T17:40:20.281Z,3.40
2022-12-08T17:42:52.729Z,3.40
2022-12-08T17:45:21.650Z,3.40
2022-12-08T17:47:51.546Z,3.40
2022-12-08T17:50:25.465Z,3.40
2022-12-08T17:52:54.012Z,3.40
2022-12-08T17:55:23.796Z,3.50
2022-12-08T17:57:53.350Z,3.40
2022-12-08T18:00:21.751Z,3.50
2022-12-08T18:02:50.068Z,3.50
2022-12-08T18:05:18.255Z,3.50
2022-12-08T18:07:46.384Z,3.50
2022-12-08T18:10:14.631Z,3.50
2022-12-08T18:12:43.444Z,3.40
2022-12-08T18:15:17.129Z,3.50
2022-12-08T18:17:46.656Z,3.50
2022-12-08T18:20:16.304Z,3.50
2022-12-08T18:22:45.224Z,3.50
2022-12-08T18:25:14.435Z,3.50
2022-12-08T18:27:44.181Z,3.50
2022-12-08T18:30:17.184Z,3.40
2022-12-08T18:32:45.430Z,3.40
2022-12-08T18:35:13.810Z,3.50
2022-12-08T18:37:42.988Z,3.50
2022-12-08T18:40:12.684Z,3.40
2022-12-08T18:42:41.873Z,3.40
2022-12-08T18:45:11.110Z,3.30
2022-12-08T18:47:43.662Z,3.30
2022-12-08T18:50:13.806Z,3.30
2022-12-08T18:52:43.738Z,3.30
2022-12-08T18:55:13.808Z,3.30
2022-12-08T18:57:43.387Z,3.30
2022-12-08T19:00:20.521Z,3.20
2022-12-08T19:02:50.198Z,3.20
2022-12-08T19:05:18.633Z,3.10
2022-12-08T19:07:53.839Z,3.10
2022-12-08T19:10:25.236Z,3.00
2022-12-08T19:12:55.465Z,3.00
2022-12-08T19:15:26.089Z,3.00
2022-12-08T19:17:56.904Z,3.00
2022-12-08T19:20:25.081Z,3.00
2022-12-08T19:22:53.263Z,2.90
2022-12-08T19:25:22.986Z,2.90
2022-12-08T19:28:22.258Z,2.80
2022-12-08T19:30:50.535Z,2.80
2022-12-08T19:33:20.276Z,2.80
2022-12-08T19:35:52.655Z,2.80
2022-12-08T19:38:21.246Z,2.80
2022-12-08T19:41:06.777Z,2.80
2022-12-08T19:44:05.981Z,2.80
2022-12-08T19:46:40.033Z,2.80
2022-12-08T19:49:10.046Z,2.80
2022-12-08T19:51:38.680Z,2.80
2022-12-08T19:54:08.750Z,2.80
2022-12-08T19:56:36.852Z,2.90
2022-12-08T19:59:07.786Z,2.80
2022-12-08T20:01:37.608Z,2.80
2022-12-08T20:04:09.843Z,2.80
2022-12-08T20:06:38.201Z,2.70
2022-12-08T20:09:06.723Z,2.80
2022-12-08T20:11:35.894Z,2.80
2022-12-08T20:14:04.050Z,2.70
2022-12-08T20:16:32.337Z,2.70
2022-12-08T20:19:00.820Z,2.60
2022-12-08T20:21:30.550Z,2.60
2022-12-08T20:24:01.035Z,2.70
2022-12-08T20:26:29.257Z,2.70
2022-12-08T20:28:57.429Z,2.60
2022-12-08T20:31:26.893Z,2.60
2022-12-08T20:33:55.668Z,2.60
2022-12-08T20:36:24.611Z,2.60
2022-12-08T20:38:55.445Z,2.60
2022-12-08T20:41:24.569Z,2.60
2022-12-08T20:43:53.659Z,2.60
2022-12-08T20:46:22.397Z,2.60
2022-12-08T20:48:50.624Z,2.60
2022-12-08T20:51:20.547Z,2.60
2022-12-08T20:53:48.785Z,2.60
2022-12-08T20:56:20.727Z,2.60
2022-12-08T20:58:52.264Z,2.60
2022-12-08T21:01:22.484Z,2.70
2022-12-08T21:03:52.261Z,2.70
2022-12-08T21:06:23.326Z,2.70
2022-12-08T21:08:52.337Z,2.70
2022-12-08T21:11:22.260Z,2.70
2022-12-08T21:13:50.685Z,2.70
2022-12-08T21:16:20.090Z,2.70
2022-12-08T21:18:48.669Z,2.70
2022-12-08T21:21:17.970Z,2.70
2022-12-08T21:23:46.349Z,2.70
2022-12-08T21:26:17.653Z,2.70
2022-12-08T21:28:48.829Z,2.70
2022-12-08T21:31:19.119Z,2.70
2022-12-08T21:33:47.652Z,2.60
2022-12-08T21:36:17.824Z,2.60
2022-12-08T21:38:46.912Z,2.60
2022-12-08T21:41:37.369Z,2.60
2022-12-08T21:44:07.922Z,2.60
2022-12-08T21:46:36.351Z,2.60
2022-12-08T21:49:05.411Z,2.60
2022-12-08T21:51:37.836Z,2.60
2022-12-08T21:54:06.426Z,2.50
2022-12-08T21:56:34.673Z,2.50
2022-12-08T21:59:02.865Z,2.40
2022-12-08T22:01:32.656Z,2.40
2022-12-08T22:04:01.241Z,2.30
2022-12-08T22:06:29.760Z,2.20
2022-12-08T22:08:58.714Z,2.10
2022-12-08T22:11:27.014Z,2.00
2022-12-08T22:13:55.447Z,1.90
2022-12-08T22:16:25.982Z,1.80
2022-12-08T22:18:55.737Z,1.70
2022-12-08T22:21:23.915Z,1.60
2022-12-08T22:23:52.077Z,1.50
2022-12-08T22:26:20.380Z,1.40
2022-12-08T22:28:48.789Z,1.40
2022-12-08T22:31:19.486Z,1.30
2022-12-08T22:33:48.478Z,1.30
2022-12-08T22:36:20.413Z,1.30
2022-12-08T22:38:49.221Z,1.40
2022-12-08T22:41:17.867Z,1.30
2022-12-08T22:43:46.410Z,1.20
2022-12-08T22:46:16.980Z,1.20
2022-12-08T22:48:45.721Z,1.10
2022-12-08T22:51:14.310Z,1.10
2022-12-08T22:53:44.013Z,1.00
2022-12-08T22:56:14.108Z,1.00
2022-12-08T22:58:43.037Z,1.00
2022-12-08T23:01:23.064Z,1.00
2022-12-08T23:03:51.658Z,1.00
2022-12-08T23:06:20.024Z,0.90
2022-12-08T23:08:50.357Z,0.80
2022-12-08T23:11:19.209Z,0.70
2022-12-08T23:13:47.592Z,0.70
2022-12-08T23:16:16.726Z,0.60
2022-12-08T23:18:46.945Z,0.50
2022-12-08T23:21:17.741Z,0.50
2022-12-08T23:23:46.662Z,0.40
2022-12-08T23:26:22.463Z,0.30
2022-12-08T23:28:51.125Z,0.20
2022-12-08T23:31:20.200Z,0.10
2022-12-08T23:33:48.704Z,0.00
2022-12-08T23:36:17.842Z,-0.10
2022-12-08T23:38:46.664Z,-0.10
2022-12-08T23:41:16.820Z,-0.20
2022-12-08T23:43:48.035Z,-0.20
2022-12-08T23:46:17.793Z,-0.20
2022-12-08T23:48:46.448Z,-0.30
2022-12-08T23:51:15.035Z,-0.30
2022-12-08T23:53:46.408Z,-0.30
2022-12-08T23:56:16.839Z,-0.30
2022-12-08T23:58:47.340Z,-0.30
